createdAt,value
2022-08-04T00:01:14.355Z,11.4
2022-08-04T00:06:48.681Z,11.3
2022-08-04T00:12:31.089Z,11.4
2022-08-04T00:17:58.805Z,11.4
2022-08-04T00:24:41.303Z,11.4
2022-08-04T00:30:15.911Z,11.4
2022-08-04T00:36:58.007Z,11.5
2022-08-04T00:42:33.460Z,11.6
2022-08-04T00:48:07.991Z,11.6
2022-08-04T00:55:57.202Z,11.7
2022-08-04T01:01:32.339Z,11.8
2022-08-04T01:07:07.252Z,11.7
2022-08-04T01:12:41.732Z,11.7
2022-08-04T01:18:16.720Z,11.7
2022-08-04T01:23:51.973Z,11.7
2022-08-04T01:29:32.297Z,11.6
2022-08-04T01:35:02.847Z,11.7
2022-08-04T01:40:36.810Z,11.5
2022-08-04T01:46:12.353Z,11.4
2022-08-04T01:51:46.800Z,11.4
2022-08-04T01:57:37.648Z,11.4
2022-08-04T02:02:56.895Z,11.4
2022-08-04T02:08:31.845Z,11.4
2022-08-04T02:14:09.045Z,11.4
2022-08-04T02:19:41.840Z,11.4
2022-08-04T02:25:17.383Z,11.4
2022-08-04T02:31:58.930Z,11.4
2022-08-04T02:37:33.940Z,11.4
2022-08-04T02:43:08.957Z,11.4
2022-08-04T02:48:43.982Z,11.3
2022-08-04T02:54:31.588Z,11.2
2022-08-04T02:59:53.922Z,11.2
2022-08-04T03:05:28.990Z,11
2022-08-04T03:11:03.986Z,11
2022-08-04T03:16:39.072Z,11
2022-08-04T03:22:14.041Z,10.9
2022-08-04T03:27:49.084Z,10.9
2022-08-04T03:33:24.010Z,10.8
2022-08-04T03:40:10.624Z,10.8
2022-08-04T03:45:41.154Z,10.8
2022-08-04T03:51:34.824Z,10.9
2022-08-04T03:56:51.129Z,10.8
2022-08-04T04:03:32.691Z,10.7
2022-08-04T04:09:08.010Z,10.7
2022-08-04T04:14:42.804Z,10.6
2022-08-04T04:20:20.201Z,10.6
2022-08-04T04:25:52.855Z,10.7
2022-08-04T04:31:27.821Z,10.7
2022-08-04T04:37:02.765Z,10.7
2022-08-04T04:42:37.749Z,10.7
2022-08-04T04:48:12.785Z,10.7
2022-08-04T04:53:47.797Z,10.7
2022-08-04T04:59:22.798Z,10.7
2022-08-04T05:04:57.830Z,10.8
2022-08-04T05:10:32.774Z,10.8
2022-08-04T05:16:07.870Z,10.8
2022-08-04T05:21:42.861Z,10.8
2022-08-04T05:27:17.894Z,10.8
2022-08-04T05:32:54.029Z,10.9
2022-08-04T05:38:27.981Z,10.9
2022-08-04T05:44:02.921Z,10.9
2022-08-04T05:49:38.074Z,10.9
2022-08-04T05:55:13.222Z,10.7
2022-08-04T06:00:52.567Z,10.7
2022-08-04T06:06:22.930Z,10.8
2022-08-04T06:12:03.740Z,10.8
2022-08-04T06:18:32.851Z,10.8
2022-08-04T06:23:07.960Z,10.8
2022-08-04T06:28:42.963Z,10.9
2022-08-04T06:34:17.889Z,10.9
2022-08-04T06:39:52.943Z,11
2022-08-04T06:45:27.955Z,11
2022-08-04T06:51:31.939Z,11
2022-08-04T06:56:37.988Z,11
2022-08-04T07:02:13.064Z,11
2022-08-04T07:07:56.475Z,11.1
2022-08-04T07:13:23.058Z,11.2
2022-08-04T07:18:58.048Z,11.3
2022-08-04T07:24:33.037Z,11.4
2022-08-04T07:30:08.123Z,11.5
2022-08-04T07:36:08.327Z,12
2022-08-04T07:41:37.109Z,12.9
2022-08-04T07:46:53.678Z,13
2022-08-04T07:52:28.095Z,12.9
2022-08-04T07:58:07.094Z,12.9
2022-08-04T08:03:37.641Z,12.9
2022-08-04T08:09:14.568Z,12.9
2022-08-04T08:14:47.640Z,12.9
2022-08-04T08:20:28.916Z,13
2022-08-04T08:25:57.583Z,13.1
2022-08-04T08:31:55.918Z,13.2
2022-08-04T08:37:07.608Z,13.5
2022-08-04T08:42:42.599Z,14.3
2022-08-04T08:48:17.602Z,14.8
2022-08-04T08:53:52.720Z,15.1
2022-08-04T08:59:27.675Z,15
2022-08-04T09:05:02.816Z,15.4
2022-08-04T09:10:37.871Z,16.2
2022-08-04T09:16:12.602Z,16.8
2022-08-04T09:21:47.676Z,17
2022-08-04T09:27:22.816Z,16.1
2022-08-04T09:32:57.713Z,15.4
2022-08-04T09:38:32.703Z,14.7
2022-08-04T09:44:48.881Z,14.4
2022-08-04T09:49:42.628Z,15
2022-08-04T09:55:17.687Z,15.5
2022-08-04T10:00:52.797Z,16.1
2022-08-04T10:06:27.705Z,16
2022-08-04T10:12:02.826Z,15.3
2022-08-04T10:17:37.700Z,15.2
2022-08-04T10:23:12.691Z,14.9
2022-08-04T10:28:47.683Z,14.3
2022-08-04T10:34:22.737Z,14
2022-08-04T10:39:58.394Z,14.8
2022-08-04T10:45:32.803Z,15.2
2022-08-04T10:51:07.812Z,15.2
2022-08-04T10:56:42.825Z,14.4
2022-08-04T11:02:17.875Z,14
2022-08-04T11:08:59.870Z,13.7
2022-08-04T11:14:34.995Z,13.6
2022-08-04T11:20:33.435Z,13.6
2022-08-04T11:25:49.637Z,13.9
2022-08-04T11:31:19.944Z,14.2
2022-08-04T11:36:54.950Z,14.3
2022-08-04T11:42:29.436Z,14.4
2022-08-04T11:48:04.991Z,14.7
2022-08-04T11:53:39.462Z,14.6
2022-08-04T11:59:14.417Z,14.9
2022-08-04T12:04:49.413Z,15.2
2022-08-04T12:10:40.944Z,15.2
2022-08-04T12:15:59.412Z,15.3
2022-08-04T12:21:34.514Z,15.1
2022-08-04T12:27:09.504Z,15
2022-08-04T12:32:48.063Z,15
2022-08-04T12:38:19.574Z,15
2022-08-04T12:43:54.544Z,14.7
2022-08-04T12:49:29.450Z,14.6
2022-08-04T12:55:04.557Z,14.8
2022-08-04T13:00:41.634Z,14.9
2022-08-04T13:06:18.477Z,14.7
2022-08-04T13:11:49.653Z,14.4
2022-08-04T13:18:32.521Z,14.3
2022-08-04T13:24:21.043Z,14.3
2022-08-04T13:30:24.520Z,14.4
2022-08-04T13:35:16.672Z,14.5
2022-08-04T13:40:51.681Z,14.3
2022-08-04T13:46:27.129Z,14.2
2022-08-04T13:52:01.680Z,13.7
2022-08-04T13:57:36.690Z,13.8
2022-08-04T14:03:23.863Z,13.9
2022-08-04T14:08:46.711Z,14.3
2022-08-04T14:14:21.822Z,14.3
2022-08-04T14:19:56.740Z,14.5
2022-08-04T14:25:35.564Z,14.2
2022-08-04T14:31:06.995Z,14.4
2022-08-04T14:37:13.081Z,14.6
2022-08-04T14:42:16.828Z,14.4
2022-08-04T14:47:53.312Z,14.3
2022-08-04T14:53:26.798Z,14.1
2022-08-04T14:59:01.730Z,13.6
2022-08-04T15:04:36.804Z,13.3
2022-08-04T15:10:13.621Z,13.8
2022-08-04T15:16:07.335Z,14.3
2022-08-04T15:22:28.656Z,14.4
2022-08-04T15:28:03.383Z,14.4
2022-08-04T15:34:45.556Z,14.4
2022-08-04T15:40:27.044Z,14.4
2022-08-04T15:46:33.056Z,14.5
2022-08-04T15:51:32.961Z,14.6
2022-08-04T15:57:05.534Z,14.6
2022-08-04T16:03:54.484Z,14.6
2022-08-04T16:09:23.275Z,14.7
2022-08-04T16:14:57.652Z,14.4
2022-08-04T16:20:33.680Z,14.1
2022-08-04T16:26:07.963Z,13.8
2022-08-04T16:31:42.735Z,13.3
2022-08-04T16:38:24.344Z,13.2
2022-08-04T16:45:06.476Z,13.3
2022-08-04T16:50:41.610Z,13.6
2022-08-04T16:56:17.729Z,13.8
2022-08-04T17:01:52.783Z,14
2022-08-04T17:07:26.646Z,14.2
2022-08-04T17:13:28.076Z,14
2022-08-04T17:18:36.625Z,13.7
2022-08-04T17:24:12.814Z,13.9
2022-08-04T17:29:46.544Z,13.9
2022-08-04T17:35:21.895Z,13.6
2022-08-04T17:42:03.665Z,13.8
2022-08-04T17:47:38.600Z,13.8
2022-08-04T17:53:13.660Z,14
2022-08-04T17:58:53.149Z,13.9
2022-08-04T18:04:23.677Z,13.5
2022-08-04T18:10:08.717Z,13.3
2022-08-04T18:15:44.237Z,13.2
2022-08-04T18:21:08.579Z,13.4
2022-08-04T18:26:45.753Z,13.4
2022-08-04T18:32:20.182Z,13.3
2022-08-04T18:38:11.453Z,13.3
2022-08-04T18:43:40.540Z,13.3
2022-08-04T18:49:03.755Z,13.3
2022-08-04T18:54:41.925Z,13.3
2022-08-04T19:00:13.647Z,13.3
2022-08-04T19:05:49.356Z,13.2
2022-08-04T19:11:37.787Z,12.9
2022-08-04T19:16:58.241Z,12.7
2022-08-04T19:22:35.802Z,12.6
2022-08-04T19:28:08.679Z,12.5
2022-08-04T19:33:59.107Z,12.5
2022-08-04T19:39:18.248Z,12.4
2022-08-04T19:44:53.203Z,12.3
2022-08-04T19:51:35.289Z,12.3
2022-08-04T19:58:17.431Z,12.1
2022-08-04T20:04:08.915Z,12
2022-08-04T20:09:27.550Z,12
2022-08-04T20:15:02.657Z,12.1
2022-08-04T20:20:37.642Z,12.2
2022-08-04T20:26:12.678Z,12.1
2022-08-04T20:31:48.335Z,12
2022-08-04T20:37:23.110Z,12
2022-08-04T20:42:57.536Z,12
2022-08-04T20:48:33.606Z,12.1
2022-08-04T20:54:16.971Z,12.1
2022-08-04T20:59:42.493Z,12.1
2022-08-04T21:05:17.544Z,12
2022-08-04T21:10:52.592Z,12.1
2022-08-04T21:16:55.443Z,12.1
2022-08-04T21:22:02.581Z,12.1
2022-08-04T21:27:39.604Z,12
2022-08-04T21:33:12.650Z,11.9
2022-08-04T21:38:51.081Z,11.9
2022-08-04T21:44:22.570Z,11.8
2022-08-04T21:49:57.644Z,11.8
2022-08-04T21:56:39.221Z,11.7
2022-08-04T22:02:14.891Z,11.7
2022-08-04T22:07:51.002Z,11.7
2022-08-04T22:13:24.258Z,11.7
2022-08-04T22:24:34.202Z,11.7
2022-08-04T22:30:17.050Z,11.8
2022-08-04T22:35:49.045Z,11.8
2022-08-04T22:41:19.456Z,11.8
2022-08-04T22:46:54.347Z,11.8
2022-08-04T22:52:32.125Z,11.8
2022-08-04T22:58:09.501Z,11.8
2022-08-04T23:03:39.335Z,11.8
2022-08-04T23:09:16.030Z,11.9
2022-08-04T23:14:49.303Z,11.9
2022-08-04T23:20:33.059Z,11.8
2022-08-04T23:26:08.444Z,11.7
2022-08-04T23:31:40.371Z,11.6
2022-08-04T23:37:10.185Z,11.5
2022-08-04T23:42:44.296Z,11.4
2022-08-04T23:48:21.114Z,11.4
2022-08-04T23:54:02.393Z,11.4
2022-08-04T23:59:52.843Z,11.3
